Time;durP1;ratioP1;P1;durP2;ratioP2;P2;SDS_P1;SDS_P2;PMS_P1;PMS_P2;Temp;Humidity;BMP_temperature;BMP_pressure;BME280_temperature;BME280_humidity;BME280_pressure;Samples;Min_cycle;Max_cycle;Signal;HPM_P1;HPM_P2
2023/04/01 00:03:26;;;;;;;14.05;7.15;;;1.40;99.90;;;;;;20445902;29;20039;-52
2023/04/01 00:13:28;;;;;;;22.30;11.60;;;1.60;99.90;;;;;;20476373;29;20119;-52
2023/04/01 00:23:30;;;;;;;16.25;9.25;;;2.60;99.90;;;;;;20419104;29;20039;-53
2023/04/01 00:33:32;;;;;;;15.77;8.77;;;2.60;99.90;;;;;;20422328;29;20425;-52
2023/04/01 00:43:34;;;;;;;21.33;13.23;;;2.20;99.90;;;;;;20421962;29;20405;-52
2023/04/01 00:53:40;;;;;;;23.33;13.15;;;2.30;99.90;;;;;;20492273;29;20038;-52
2023/04/01 01:03:41;;;;;;;13.25;8.27;;;2.50;99.90;;;;;;20432142;29;20401;-50
2023/04/01 01:13:47;;;;;;;20.58;13.32;;;2.50;99.90;;;;;;20402918;29;20039;-51
2023/04/01 01:24:17;;;;;;;23.08;13.68;;;2.50;99.90;;;;;;20442048;29;20039;-52
2023/04/01 01:34:49;;;;;;;14.00;8.07;;;2.60;99.90;;;;;;20425766;29;20031;-52
2023/04/01 01:44:53;;;;;;;5.32;3.40;;;2.60;99.90;;;;;;20418826;29;20085;-52
2023/04/01 01:54:57;;;;;;;2.85;1.90;;;2.60;99.90;;;;;;20417719;29;20096;-52
2023/04/01 02:05:02;;;;;;;4.40;1.60;;;2.60;99.90;;;;;;20435907;29;20047;-52
2023/04/01 02:15:14;;;;;;;2.38;1.38;;;2.60;99.90;;;;;;20451500;29;20028;-51
2023/04/01 02:25:21;;;;;;;2.70;0.93;;;2.70;99.90;;;;;;20395937;29;20035;-53
2023/04/01 02:35:23;;;;;;;1.58;0.65;;;2.40;99.90;;;;;;20429754;29;20027;-51
2023/04/01 02:45:25;;;;;;;3.65;0.88;;;3.00;99.90;;;;;;20436592;29;20040;-49
2023/04/01 02:55:26;;;;;;;2.10;0.50;;;3.40;99.90;;;;;;20506905;29;20031;-50
2023/04/01 03:05:28;;;;;;;0.65;0.40;;;3.30;99.90;;;;;;20413485;28;20099;-50
2023/04/01 03:15:30;;;;;;;1.25;0.35;;;3.10;99.90;;;;;;20428975;29;20039;-53
2023/04/01 03:25:31;;;;;;;0.80;0.32;;;3.10;99.90;;;;;;20461201;29;20422;-51
2023/04/01 03:35:35;;;;;;;0.52;0.10;;;2.60;99.90;;;;;;20411194;29;20043;-49
2023/04/01 03:45:49;;;;;;;0.40;0.20;;;2.50;99.90;;;;;;20409233;29;20039;-52
2023/04/01 03:55:53;;;;;;;1.98;0.40;;;2.70;99.90;;;;;;20408571;29;20032;-48
2023/04/01 04:05:56;;;;;;;1.25;0.10;;;2.50;99.90;;;;;;20449160;29;20043;-52
2023/04/01 04:15:59;;;;;;;0.57;0.13;;;2.40;99.90;;;;;;20450006;29;20541;-50
2023/04/01 04:26:04;;;;;;;0.03;0.00;;;2.70;99.90;;;;;;20417778;29;20405;-52
2023/04/01 04:36:06;;;;;;;0.03;0.00;;;2.90;99.90;;;;;;20405769;29;20118;-49
2023/04/01 04:46:10;;;;;;;0.22;0.10;;;2.80;99.90;;;;;;20433411;29;20043;-52
2023/04/01 04:56:12;;;;;;;0.65;0.00;;;2.50;99.90;;;;;;20486022;28;20469;-51
2023/04/01 05:06:23;;;;;;;0.13;0.00;;;2.50;99.90;;;;;;20401369;29;20047;-51
2023/04/01 05:16:25;;;;;;;0.32;0.00;;;2.40;99.90;;;;;;20443350;29;20037;-49
2023/04/01 05:26:27;;;;;;;0.45;0.08;;;2.70;99.90;;;;;;20434314;29;20046;-51
2023/04/01 05:36:28;;;;;;;0.00;0.00;;;2.90;99.90;;;;;;20416800;29;20039;-52
2023/04/01 05:46:31;;;;;;;0.60;0.17;;;3.00;99.90;;;;;;20444925;29;20043;-53
2023/04/01 05:56:53;;;;;;;0.15;0.00;;;3.50;99.90;;;;;;20479114;29;20099;-49
2023/04/01 06:06:55;;;;;;;0.00;0.00;;;3.40;99.90;;;;;;20411831;29;20055;-52
2023/04/01 06:17:05;;;;;;;0.55;0.00;;;3.40;99.90;;;;;;20432040;29;20040;-52
2023/04/01 06:27:19;;;;;;;0.98;0.20;;;3.30;99.90;;;;;;20411024;29;20040;-52
2023/04/01 06:37:46;;;;;;;0.00;0.00;;;3.20;99.90;;;;;;20412296;29;20027;-53
2023/04/01 06:48:32;;;;;;;0.00;0.00;;;3.60;99.90;;;;;;20486049;29;20067;-52
2023/04/01 06:58:57;;;;;;;0.20;0.10;;;5.00;99.90;;;;;;20223500;29;20052;-49
2023/04/01 07:09:04;;;;;;;0.65;0.00;;;6.40;99.90;;;;;;20170778;29;20064;-50
2023/04/01 07:19:47;;;;;;;0.15;0.00;;;7.10;99.70;;;;;;20188884;29;20052;-54
2023/04/01 07:29:50;;;;;;;2.08;0.25;;;8.00;88.20;;;;;;20288851;29;20107;-53
2023/04/01 07:40:01;;;;;;;1.65;0.20;;;9.20;85.50;;;;;;20469445;29;20028;-48
2023/04/01 07:50:18;;;;;;;0.77;0.30;;;9.80;85.30;;;;;;20421750;29;20044;-53
2023/04/01 08:00:38;;;;;;;2.53;0.80;;;10.60;90.80;;;;;;20409472;29;20095;-53
2023/04/01 08:10:53;;;;;;;0.00;0.00;;;11.20;97.00;;;;;;20409068;29;20079;-56
2023/04/01 08:21:47;;;;;;;2.00;0.73;;;11.70;76.30;;;;;;20432444;29;20040;-59
2023/04/01 08:31:54;;;;;;;0.32;0.20;;;12.20;93.20;;;;;;20414170;29;20031;-57
2023/04/01 08:42:08;;;;;;;0.38;0.20;;;11.60;90.20;;;;;;20397269;29;20035;-65
2023/04/01 08:52:37;;;;;;;1.27;0.40;;;11.70;82.70;;;;;;20415022;29;20040;-58
2023/04/01 09:02:55;;;;;;;0.60;0.40;;;12.10;90.70;;;;;;20391605;28;20043;-58
2023/04/01 09:13:25;;;;;;;0.20;0.20;;;12.10;90.30;;;;;;20377511;29;20512;-65
2023/04/01 09:23:49;;;;;;;0.40;0.30;;;12.20;86.40;;;;;;20415013;29;20106;-58
2023/04/01 09:34:00;;;;;;;2.60;0.70;;;12.20;86.90;;;;;;20393590;29;20039;-59
2023/04/01 09:44:36;;;;;;;0.80;0.50;;;12.70;91.10;;;;;;20418617;29;20043;-57
2023/04/01 09:55:10;;;;;;;0.50;0.20;;;13.20;91.00;;;;;;20423880;29;20050;-48
2023/04/01 10:05:17;;;;;;;0.65;0.30;;;14.20;79.30;;;;;;20427142;29;20576;-50
2023/04/01 10:15:38;;;;;;;1.05;0.40;;;15.00;87.90;;;;;;20426944;29;20149;-61
2023/04/01 10:25:47;;;;;;;2.00;1.10;;;15.70;91.10;;;;;;20474399;29;20035;-51
2023/04/01 10:36:18;;;;;;;1.45;0.90;;;16.00;90.90;;;;;;20426478;29;20119;-63
2023/04/01 10:46:49;;;;;;;1.10;0.70;;;16.30;90.20;;;;;;20396552;29;20094;-62
2023/04/01 10:57:02;;;;;;;1.63;0.30;;;16.90;89.00;;;;;;20413104;29;20086;-62
2023/04/01 11:07:44;;;;;;;2.50;1.50;;;17.00;81.10;;;;;;20458915;29;20532;-61
2023/04/01 11:18:08;;;;;;;1.70;1.17;;;16.50;84.60;;;;;;20447599;29;20039;-61
2023/04/01 11:28:22;;;;;;;3.35;1.30;;;17.20;87.70;;;;;;20369410;29;20083;-49
2023/04/01 11:38:43;;;;;;;1.88;1.42;;;15.90;82.00;;;;;;20412170;29;20050;-60
2023/04/01 11:49:22;;;;;;;3.67;2.80;;;13.80;89.00;;;;;;20431589;29;20035;-59
2023/04/01 12:00:10;;;;;;;3.63;2.55;;;12.20;93.00;;;;;;20396416;29;20036;-59
2023/04/01 12:10:42;;;;;;;4.90;3.40;;;12.30;93.50;;;;;;20348046;29;20052;-59
2023/04/01 12:20:51;;;;;;;5.45;3.33;;;12.50;94.20;;;;;;20397889;29;20113;-60
2023/04/01 12:31:10;;;;;;;3.53;2.80;;;12.80;96.40;;;;;;20446438;29;20035;-62
2023/04/01 12:41:37;;;;;;;7.10;2.70;;;15.10;91.50;;;;;;20409785;29;20104;-62
2023/04/01 12:52:00;;;;;;;4.78;3.45;;;15.60;86.90;;;;;;20386751;29;20345;-62
2023/04/01 13:02:14;;;;;;;6.93;3.20;;;15.50;91.50;;;;;;20458624;29;20686;-62
2023/04/01 13:12:46;;;;;;;4.38;3.15;;;14.80;91.30;;;;;;20459404;28;20031;-51
2023/04/01 13:23:15;;;;;;;3.42;1.77;;;12.80;91.30;;;;;;20462003;29;20059;-59
2023/04/01 13:33:35;;;;;;;3.90;1.67;;;11.00;90.50;;;;;;20419370;29;20036;-59
2023/04/01 13:43:43;;;;;;;1.65;0.20;;;9.90;92.30;;;;;;20418332;29;20035;-58
2023/04/01 13:54:26;;;;;;;0.77;0.40;;;8.30;93.90;;;;;;20457155;29;20441;-47
2023/04/01 14:04:55;;;;;;;2.25;0.70;;;6.90;97.20;;;;;;20386812;29;20051;-57
2023/04/01 14:15:24;;;;;;;2.33;1.38;;;6.60;99.90;;;;;;20418070;29;20063;-47
2023/04/01 14:25:32;;;;;;;2.23;1.03;;;6.50;99.90;;;;;;20404776;29;20035;-48
2023/04/01 14:35:46;;;;;;;3.17;2.10;;;6.20;99.90;;;;;;20433268;29;20068;-51
2023/04/01 14:46:08;;;;;;;5.03;1.58;;;5.70;99.90;;;;;;20431718;29;20036;-58
2023/04/01 14:56:10;;;;;;;3.42;1.90;;;5.20;99.90;;;;;;20428798;29;20035;-59
2023/04/01 15:06:46;;;;;;;3.30;2.42;;;5.10;99.90;;;;;;20406762;29;20549;-58
2023/04/01 15:16:59;;;;;;;3.95;2.70;;;5.30;99.90;;;;;;20414452;29;20050;-49
2023/04/01 15:27:42;;;;;;;2.65;2.17;;;5.60;99.90;;;;;;20369371;29;20401;-47
2023/04/01 15:37:49;;;;;;;6.38;3.03;;;5.70;99.90;;;;;;20347398;29;20081;-59
2023/04/01 15:48:10;;;;;;;11.45;8.02;;;5.70;99.90;;;;;;20427105;29;20087;-45
2023/04/01 15:58:38;;;;;;;2.20;1.53;;;5.90;99.90;;;;;;20356144;29;20050;-45
2023/04/01 16:09:04;;;;;;;2.25;1.40;;;6.00;99.90;;;;;;20238847;29;20498;-49
2023/04/01 16:19:48;;;;;;;5.82;1.20;;;6.50;99.90;;;;;;20254008;29;20204;-46
2023/04/01 16:30:11;;;;;;;2.08;1.20;;;6.70;99.90;;;;;;20257466;29;20474;-47
2023/04/01 16:40:34;;;;;;;2.85;1.75;;;6.20;99.90;;;;;;20329587;29;20047;-57
2023/04/01 16:50:59;;;;;;;5.65;1.27;;;5.80;99.90;;;;;;20417790;29;20047;-47
2023/04/01 17:01:22;;;;;;;5.20;1.13;;;5.40;99.90;;;;;;20446149;29;20043;-47
2023/04/01 17:11:38;;;;;;;1.30;0.75;;;4.90;99.90;;;;;;20438255;29;20047;-47
2023/04/01 17:22:01;;;;;;;1.50;0.40;;;4.80;99.90;;;;;;20476436;29;20063;-47
2023/04/01 17:32:36;;;;;;;0.47;0.35;;;4.50;99.90;;;;;;20487283;29;20402;-47
2023/04/01 17:42:54;;;;;;;2.08;0.50;;;4.20;99.90;;;;;;20449445;29;20555;-58
2023/04/01 17:53:25;;;;;;;0.70;0.40;;;4.10;99.90;;;;;;20418947;29;20036;-48
2023/04/01 18:04:03;;;;;;;2.77;0.90;;;3.70;99.90;;;;;;20478480;28;20043;-56
2023/04/01 18:14:14;;;;;;;0.77;0.55;;;3.50;99.90;;;;;;20435128;29;20064;-47
2023/04/01 18:24:22;;;;;;;0.32;0.20;;;3.30;99.90;;;;;;20405360;29;20482;-46
2023/04/01 18:34:39;;;;;;;0.40;0.20;;;3.30;99.90;;;;;;20413915;29;20060;-47
2023/04/01 18:45:07;;;;;;;0.55;0.20;;;3.20;99.90;;;;;;20461416;29;20092;-48
2023/04/01 18:55:36;;;;;;;0.55;0.25;;;3.60;99.90;;;;;;20429530;29;20079;-46
2023/04/01 19:05:41;;;;;;;0.43;0.20;;;3.90;99.90;;;;;;20508576;29;20102;-46
2023/04/01 19:16:05;;;;;;;1.60;0.10;;;4.10;99.90;;;;;;20427944;29;20505;-48
2023/04/01 19:26:20;;;;;;;1.48;0.20;;;4.20;99.90;;;;;;20416816;29;20043;-59
2023/04/01 19:36:30;;;;;;;1.90;0.28;;;4.20;99.90;;;;;;20460740;29;20039;-48
2023/04/01 19:46:44;;;;;;;0.98;0.30;;;4.20;99.90;;;;;;20427037;29;20091;-51
2023/04/01 19:57:00;;;;;;;1.35;0.30;;;4.30;99.90;;;;;;20426113;29;20032;-49
2023/04/01 20:07:20;;;;;;;2.45;0.38;;;4.10;99.90;;;;;;20425334;29;20592;-58
2023/04/01 20:17:44;;;;;;;0.70;0.40;;;3.70;99.90;;;;;;20424633;29;20091;-58
2023/04/01 20:27:58;;;;;;;1.25;0.50;;;3.50;99.90;;;;;;20418939;29;20031;-47
2023/04/01 20:38:30;;;;;;;1.40;0.63;;;3.30;99.90;;;;;;20423502;29;20087;-47
2023/04/01 20:48:44;;;;;;;;;;;3.20;99.90;;;;;;20410181;29;20051;-51
2023/04/01 20:58:45;;;;;;;2.05;0.80;;;3.10;99.90;;;;;;20437174;29;19914;-51
2023/04/01 21:09:03;;;;;;;2.55;0.80;;;3.10;99.90;;;;;;20419723;29;20048;-50
2023/04/01 21:19:26;;;;;;;4.38;1.70;;;3.10;99.90;;;;;;20400032;29;20035;-51
2023/04/01 21:29:33;;;;;;;3.05;1.85;;;3.10;99.90;;;;;;20419620;29;20055;-49
2023/04/01 21:39:51;;;;;;;3.05;1.80;;;3.30;99.90;;;;;;20407823;29;20043;-49
2023/04/01 21:50:20;;;;;;;5.57;3.28;;;3.40;99.90;;;;;;20420297;29;20545;-49
2023/04/01 22:00:51;;;;;;;4.20;2.88;;;3.60;99.90;;;;;;20418236;29;20035;-49
2023/04/01 22:11:12;;;;;;;4.30;2.40;;;3.80;99.90;;;;;;20412907;29;20116;-49
2023/04/01 22:21:33;;;;;;;4.20;2.10;;;4.10;99.90;;;;;;20418005;29;20287;-47
2023/04/01 22:31:47;;;;;;;;;;;4.40;99.90;;;;;;20417905;29;20169;-48
2023/04/01 22:42:04;;;;;;;4.93;3.00;;;4.50;99.90;;;;;;20400017;29;19915;-47
2023/04/01 22:52:30;;;;;;;6.25;3.45;;;4.50;99.90;;;;;;20383767;29;20342;-47
2023/04/01 23:02:42;;;;;;;6.88;3.05;;;4.50;99.90;;;;;;20502019;28;20031;-51
2023/04/01 23:12:45;;;;;;;4.18;2.63;;;4.80;99.90;;;;;;20453643;29;20429;-49
2023/04/01 23:23:11;;;;;;;3.28;2.10;;;5.10;99.90;;;;;;20424628;29;20051;-48
2023/04/01 23:33:18;;;;;;;3.35;1.10;;;5.20;99.90;;;;;;20440222;29;20032;-49
2023/04/01 23:43:40;;;;;;;3.78;1.13;;;5.00;99.90;;;;;;20446555;29;20039;-47
2023/04/01 23:53:45;;;;;;;2.10;1.00;;;5.00;99.90;;;;;;20426455;29;20426;-47
